sensor_id;sensor_type;location;lat;lon;timestamp;P1;durP1;ratioP1;P2;durP2;ratioP2
62362;SDS011;48396;48.426;1.500;2023-03-14T00:01:55;16.95;;;3.65;;
62362;SDS011;48396;48.426;1.500;2023-03-14T00:04:22;20.40;;;3.70;;
62362;SDS011;48396;48.426;1.500;2023-03-14T00:06:48;18.33;;;3.40;;
62362;SDS011;48396;48.426;1.500;2023-03-14T00:09:14;16.52;;;3.60;;
62362;SDS011;48396;48.426;1.500;2023-03-14T00:11:41;26.90;;;5.05;;
62362;SDS011;48396;48.426;1.500;2023-03-14T00:14:08;20.23;;;3.75;;
62362;SDS011;48396;48.426;1.500;2023-03-14T00:16:34;23.15;;;3.90;;
62362;SDS011;48396;48.426;1.500;2023-03-14T00:19:01;17.52;;;3.47;;
62362;SDS011;48396;48.426;1.500;2023-03-14T00:21:27;16.90;;;4.28;;
62362;SDS011;48396;48.426;1.500;2023-03-14T00:23:53;17.17;;;3.65;;
62362;SDS011;48396;48.426;1.500;2023-03-14T00:26:19;19.92;;;3.85;;
62362;SDS011;48396;48.426;1.500;2023-03-14T00:28:46;14.13;;;3.25;;
62362;SDS011;48396;48.426;1.500;2023-03-14T00:31:15;15.48;;;3.42;;
62362;SDS011;48396;48.426;1.500;2023-03-14T00:33:42;16.98;;;3.30;;
62362;SDS011;48396;48.426;1.500;2023-03-14T00:36:10;22.05;;;3.67;;
62362;SDS011;48396;48.426;1.500;2023-03-14T00:38:41;18.33;;;3.00;;
62362;SDS011;48396;48.426;1.500;2023-03-14T00:41:08;13.02;;;3.10;;
62362;SDS011;48396;48.426;1.500;2023-03-14T00:43:36;13.55;;;2.83;;
62362;SDS011;48396;48.426;1.500;2023-03-14T00:46:02;17.85;;;3.10;;
62362;SDS011;48396;48.426;1.500;2023-03-14T00:48:28;19.90;;;3.05;;
62362;SDS011;48396;48.426;1.500;2023-03-14T00:50:54;14.82;;;3.10;;
62362;SDS011;48396;48.426;1.500;2023-03-14T00:53:20;14.15;;;2.85;;
62362;SDS011;48396;48.426;1.500;2023-03-14T00:55:46;14.05;;;3.20;;
62362;SDS011;48396;48.426;1.500;2023-03-14T00:58:13;12.07;;;2.45;;
62362;SDS011;48396;48.426;1.500;2023-03-14T01:00:41;14.20;;;2.65;;
62362;SDS011;48396;48.426;1.500;2023-03-14T01:03:09;17.50;;;3.08;;
62362;SDS011;48396;48.426;1.500;2023-03-14T01:05:35;12.52;;;2.50;;
62362;SDS011;48396;48.426;1.500;2023-03-14T01:08:01;10.13;;;2.40;;
62362;SDS011;48396;48.426;1.500;2023-03-14T01:10:27;10.95;;;2.15;;
62362;SDS011;48396;48.426;1.500;2023-03-14T01:12:53;13.25;;;2.50;;
62362;SDS011;48396;48.426;1.500;2023-03-14T01:15:19;10.48;;;2.60;;
62362;SDS011;48396;48.426;1.500;2023-03-14T01:17:45;10.32;;;2.40;;
62362;SDS011;48396;48.426;1.500;2023-03-14T01:20:12;13.38;;;2.50;;
62362;SDS011;48396;48.426;1.500;2023-03-14T01:22:38;7.38;;;2.20;;
62362;SDS011;48396;48.426;1.500;2023-03-14T01:25:06;9.73;;;1.98;;
62362;SDS011;48396;48.426;1.500;2023-03-14T01:27:32;11.25;;;2.60;;
62362;SDS011;48396;48.426;1.500;2023-03-14T01:29:58;14.57;;;2.60;;
62362;SDS011;48396;48.426;1.500;2023-03-14T01:32:24;10.25;;;1.70;;
62362;SDS011;48396;48.426;1.500;2023-03-14T01:34:50;9.27;;;2.13;;
62362;SDS011;48396;48.426;1.500;2023-03-14T01:37:16;10.10;;;2.05;;
62362;SDS011;48396;48.426;1.500;2023-03-14T01:39:42;10.05;;;1.98;;
62362;SDS011;48396;48.426;1.500;2023-03-14T01:42:08;6.80;;;1.65;;
62362;SDS011;48396;48.426;1.500;2023-03-14T01:47:20;7.75;;;1.50;;
62362;SDS011;48396;48.426;1.500;2023-03-14T01:49:46;6.78;;;1.40;;
62362;SDS011;48396;48.426;1.500;2023-03-14T01:52:47;10.68;;;1.90;;
62362;SDS011;48396;48.426;1.500;2023-03-14T01:55:14;7.40;;;1.48;;
62362;SDS011;48396;48.426;1.500;2023-03-14T01:57:44;5.47;;;1.73;;
62362;SDS011;48396;48.426;1.500;2023-03-14T02:00:15;8.43;;;1.33;;
62362;SDS011;48396;48.426;1.500;2023-03-14T02:02:44;8.50;;;1.50;;
62362;SDS011;48396;48.426;1.500;2023-03-14T02:05:16;4.63;;;1.50;;
62362;SDS011;48396;48.426;1.500;2023-03-14T02:07:46;9.18;;;1.50;;
62362;SDS011;48396;48.426;1.500;2023-03-14T02:10:16;8.05;;;1.55;;
62362;SDS011;48396;48.426;1.500;2023-03-14T02:12:45;5.85;;;1.23;;
62362;SDS011;48396;48.426;1.500;2023-03-14T02:15:14;9.32;;;1.83;;
62362;SDS011;48396;48.426;1.500;2023-03-14T02:17:40;5.68;;;1.27;;
62362;SDS011;48396;48.426;1.500;2023-03-14T02:23:03;4.00;;;0.77;;
62362;SDS011;48396;48.426;1.500;2023-03-14T02:28:22;4.53;;;1.35;;
62362;SDS011;48396;48.426;1.500;2023-03-14T02:30:47;5.45;;;1.10;;
62362;SDS011;48396;48.426;1.500;2023-03-14T02:33:14;5.40;;;1.23;;
62362;SDS011;48396;48.426;1.500;2023-03-14T02:35:53;5.38;;;0.98;;
62362;SDS011;48396;48.426;1.500;2023-03-14T02:38:31;4.50;;;1.15;;
62362;SDS011;48396;48.426;1.500;2023-03-14T02:41:20;3.63;;;0.75;;
62362;SDS011;48396;48.426;1.500;2023-03-14T02:43:47;3.30;;;1.13;;
62362;SDS011;48396;48.426;1.500;2023-03-14T02:46:13;4.13;;;0.95;;
62362;SDS011;48396;48.426;1.500;2023-03-14T02:48:43;4.60;;;0.95;;
62362;SDS011;48396;48.426;1.500;2023-03-14T02:51:13;3.53;;;0.82;;
62362;SDS011;48396;48.426;1.500;2023-03-14T02:53:40;5.30;;;0.80;;
62362;SDS011;48396;48.426;1.500;2023-03-14T02:56:08;4.90;;;0.68;;
62362;SDS011;48396;48.426;1.500;2023-03-14T02:58:34;5.85;;;0.70;;
62362;SDS011;48396;48.426;1.500;2023-03-14T03:01:00;6.28;;;0.73;;
62362;SDS011;48396;48.426;1.500;2023-03-14T03:03:26;3.45;;;0.88;;
62362;SDS011;48396;48.426;1.500;2023-03-14T03:05:53;5.43;;;0.93;;
62362;SDS011;48396;48.426;1.500;2023-03-14T03:08:20;2.28;;;0.60;;
62362;SDS011;48396;48.426;1.500;2023-03-14T03:10:47;3.08;;;0.55;;
62362;SDS011;48396;48.426;1.500;2023-03-14T03:13:14;2.00;;;0.60;;
62362;SDS011;48396;48.426;1.500;2023-03-14T03:15:40;1.95;;;0.60;;
62362;SDS011;48396;48.426;1.500;2023-03-14T03:18:06;2.70;;;0.82;;
62362;SDS011;48396;48.426;1.500;2023-03-14T03:20:32;3.97;;;1.00;;
62362;SDS011;48396;48.426;1.500;2023-03-14T03:22:58;1.77;;;0.47;;
62362;SDS011;48396;48.426;1.500;2023-03-14T03:25:25;5.28;;;1.00;;
62362;SDS011;48396;48.426;1.500;2023-03-14T03:27:51;5.65;;;0.98;;
62362;SDS011;48396;48.426;1.500;2023-03-14T03:30:17;3.70;;;1.08;;
62362;SDS011;48396;48.426;1.500;2023-03-14T03:32:43;4.20;;;0.75;;
62362;SDS011;48396;48.426;1.500;2023-03-14T03:35:09;3.65;;;0.82;;
62362;SDS011;48396;48.426;1.500;2023-03-14T03:37:35;4.28;;;0.95;;
62362;SDS011;48396;48.426;1.500;2023-03-14T03:40:01;6.32;;;0.95;;
62362;SDS011;48396;48.426;1.500;2023-03-14T03:42:31;2.08;;;0.85;;
62362;SDS011;48396;48.426;1.500;2023-03-14T03:44:57;5.32;;;1.38;;
62362;SDS011;48396;48.426;1.500;2023-03-14T03:47:22;4.35;;;1.02;;
62362;SDS011;48396;48.426;1.500;2023-03-14T03:49:48;2.55;;;0.52;;
62362;SDS011;48396;48.426;1.500;2023-03-14T03:52:14;2.25;;;0.47;;
62362;SDS011;48396;48.426;1.500;2023-03-14T03:54:40;2.08;;;0.60;;
62362;SDS011;48396;48.426;1.500;2023-03-14T03:57:05;1.67;;;0.40;;
62362;SDS011;48396;48.426;1.500;2023-03-14T03:59:31;1.17;;;0.50;;
62362;SDS011;48396;48.426;1.500;2023-03-14T04:01:57;5.13;;;0.82;;
62362;SDS011;48396;48.426;1.500;2023-03-14T04:04:23;4.40;;;0.80;;
62362;SDS011;48396;48.426;1.500;2023-03-14T04:06:48;3.78;;;0.85;;
62362;SDS011;48396;48.426;1.500;2023-03-14T04:09:14;2.05;;;0.77;;
62362;SDS011;48396;48.426;1.500;2023-03-14T04:11:40;2.50;;;0.57;;
62362;SDS011;48396;48.426;1.500;2023-03-14T04:14:06;1.75;;;0.30;;
62362;SDS011;48396;48.426;1.500;2023-03-14T04:16:32;2.30;;;0.60;;
62362;SDS011;48396;48.426;1.500;2023-03-14T04:18:59;1.40;;;0.45;;
62362;SDS011;48396;48.426;1.500;2023-03-14T04:21:26;1.60;;;0.35;;
62362;SDS011;48396;48.426;1.500;2023-03-14T04:23:51;2.45;;;0.40;;
62362;SDS011;48396;48.426;1.500;2023-03-14T04:26:17;1.65;;;0.50;;
62362;SDS011;48396;48.426;1.500;2023-03-14T04:28:43;0.82;;;0.38;;
62362;SDS011;48396;48.426;1.500;2023-03-14T04:31:10;0.90;;;0.30;;
62362;SDS011;48396;48.426;1.500;2023-03-14T04:33:43;1.85;;;0.60;;
62362;SDS011;48396;48.426;1.500;2023-03-14T04:36:09;3.70;;;0.70;;
62362;SDS011;48396;48.426;1.500;2023-03-14T04:38:35;2.90;;;0.73;;
62362;SDS011;48396;48.426;1.500;2023-03-14T04:41:00;3.63;;;0.88;;
62362;SDS011;48396;48.426;1.500;2023-03-14T04:43:27;0.90;;;0.88;;
62362;SDS011;48396;48.426;1.500;2023-03-14T04:45:53;1.17;;;0.90;;
62362;SDS011;48396;48.426;1.500;2023-03-14T04:48:19;9.15;;;2.97;;
62362;SDS011;48396;48.426;1.500;2023-03-14T04:50:48;3.05;;;1.13;;
62362;SDS011;48396;48.426;1.500;2023-03-14T04:53:15;2.47;;;1.23;;
62362;SDS011;48396;48.426;1.500;2023-03-14T04:55:42;2.78;;;1.73;;
62362;SDS011;48396;48.426;1.500;2023-03-14T04:58:12;17.92;;;6.05;;
62362;SDS011;48396;48.426;1.500;2023-03-14T05:00:37;7.20;;;2.40;;
62362;SDS011;48396;48.426;1.500;2023-03-14T05:03:03;5.18;;;2.35;;
62362;SDS011;48396;48.426;1.500;2023-03-14T05:05:29;6.85;;;1.83;;
62362;SDS011;48396;48.426;1.500;2023-03-14T05:07:54;1.63;;;1.02;;
62362;SDS011;48396;48.426;1.500;2023-03-14T05:10:20;5.50;;;1.15;;
62362;SDS011;48396;48.426;1.500;2023-03-14T05:12:46;5.13;;;2.10;;
62362;SDS011;48396;48.426;1.500;2023-03-14T05:15:12;5.18;;;2.65;;
62362;SDS011;48396;48.426;1.500;2023-03-14T05:17:37;6.22;;;2.25;;
62362;SDS011;48396;48.426;1.500;2023-03-14T05:20:03;10.38;;;3.92;;
62362;SDS011;48396;48.426;1.500;2023-03-14T05:22:34;5.63;;;2.40;;
62362;SDS011;48396;48.426;1.500;2023-03-14T05:25:00;7.00;;;2.17;;
62362;SDS011;48396;48.426;1.500;2023-03-14T05:27:25;5.95;;;1.98;;
62362;SDS011;48396;48.426;1.500;2023-03-14T05:29:51;4.20;;;1.60;;
62362;SDS011;48396;48.426;1.500;2023-03-14T05:32:17;15.13;;;4.70;;
62362;SDS011;48396;48.426;1.500;2023-03-14T05:34:43;6.03;;;2.10;;
62362;SDS011;48396;48.426;1.500;2023-03-14T05:37:08;5.38;;;2.00;;
62362;SDS011;48396;48.426;1.500;2023-03-14T05:39:34;8.88;;;2.30;;
62362;SDS011;48396;48.426;1.500;2023-03-14T05:42:00;5.70;;;2.08;;
62362;SDS011;48396;48.426;1.500;2023-03-14T05:44:26;6.20;;;2.42;;
62362;SDS011;48396;48.426;1.500;2023-03-14T05:46:51;11.48;;;2.95;;
62362;SDS011;48396;48.426;1.500;2023-03-14T05:49:17;13.13;;;3.97;;
62362;SDS011;48396;48.426;1.500;2023-03-14T05:51:43;9.77;;;3.20;;
62362;SDS011;48396;48.426;1.500;2023-03-14T05:54:08;7.82;;;2.45;;
62362;SDS011;48396;48.426;1.500;2023-03-14T05:56:34;6.78;;;1.52;;
62362;SDS011;48396;48.426;1.500;2023-03-14T05:59:00;6.50;;;2.80;;
62362;SDS011;48396;48.426;1.500;2023-03-14T06:01:29;6.07;;;2.05;;
62362;SDS011;48396;48.426;1.500;2023-03-14T06:03:55;9.18;;;3.03;;
62362;SDS011;48396;48.426;1.500;2023-03-14T06:06:20;8.30;;;2.28;;
62362;SDS011;48396;48.426;1.500;2023-03-14T06:08:46;8.50;;;2.13;;
62362;SDS011;48396;48.426;1.500;2023-03-14T06:11:12;12.00;;;3.10;;
62362;SDS011;48396;48.426;1.500;2023-03-14T06:13:38;11.13;;;2.55;;
62362;SDS011;48396;48.426;1.500;2023-03-14T06:16:04;8.85;;;2.58;;
62362;SDS011;48396;48.426;1.500;2023-03-14T06:18:30;8.25;;;3.00;;
62362;SDS011;48396;48.426;1.500;2023-03-14T06:20:57;9.75;;;2.50;;
62362;SDS011;48396;48.426;1.500;2023-03-14T06:23:22;9.98;;;1.85;;
62362;SDS011;48396;48.426;1.500;2023-03-14T06:25:49;9.68;;;2.40;;
62362;SDS011;48396;48.426;1.500;2023-03-14T06:28:15;8.18;;;2.78;;
62362;SDS011;48396;48.426;1.500;2023-03-14T06:30:41;10.05;;;2.38;;
62362;SDS011;48396;48.426;1.500;2023-03-14T06:33:06;11.00;;;3.08;;
62362;SDS011;48396;48.426;1.500;2023-03-14T06:35:32;8.60;;;2.58;;
62362;SDS011;48396;48.426;1.500;2023-03-14T06:37:58;5.10;;;1.77;;
62362;SDS011;48396;48.426;1.500;2023-03-14T06:40:24;9.27;;;2.30;;
62362;SDS011;48396;48.426;1.500;2023-03-14T06:42:50;9.77;;;2.28;;
62362;SDS011;48396;48.426;1.500;2023-03-14T06:45:16;12.63;;;2.50;;
62362;SDS011;48396;48.426;1.500;2023-03-14T06:47:42;7.13;;;2.13;;
62362;SDS011;48396;48.426;1.500;2023-03-14T06:50:08;7.00;;;2.40;;
62362;SDS011;48396;48.426;1.500;2023-03-14T06:52:34;6.68;;;2.00;;
62362;SDS011;48396;48.426;1.500;2023-03-14T06:55:00;8.80;;;2.40;;
62362;SDS011;48396;48.426;1.500;2023-03-14T06:57:26;11.50;;;3.03;;
62362;SDS011;48396;48.426;1.500;2023-03-14T06:59:52;10.88;;;4.00;;
62362;SDS011;48396;48.426;1.500;2023-03-14T07:02:18;17.30;;;3.70;;
62362;SDS011;48396;48.426;1.500;2023-03-14T07:04:44;12.82;;;3.38;;
62362;SDS011;48396;48.426;1.500;2023-03-14T07:07:10;17.38;;;5.22;;
62362;SDS011;48396;48.426;1.500;2023-03-14T07:09:35;8.70;;;2.22;;
62362;SDS011;48396;48.426;1.500;2023-03-14T07:12:01;14.68;;;3.42;;
62362;SDS011;48396;48.426;1.500;2023-03-14T07:14:29;15.60;;;3.45;;
62362;SDS011;48396;48.426;1.500;2023-03-14T07:16:55;11.52;;;3.67;;
62362;SDS011;48396;48.426;1.500;2023-03-14T07:19:22;16.85;;;4.10;;
62362;SDS011;48396;48.426;1.500;2023-03-14T07:21:47;10.55;;;3.47;;
62362;SDS011;48396;48.426;1.500;2023-03-14T07:24:14;11.40;;;2.92;;
62362;SDS011;48396;48.426;1.500;2023-03-14T07:26:39;9.55;;;2.40;;
62362;SDS011;48396;48.426;1.500;2023-03-14T07:29:05;13.45;;;2.80;;
62362;SDS011;48396;48.426;1.500;2023-03-14T07:31:32;11.25;;;3.05;;
62362;SDS011;48396;48.426;1.500;2023-03-14T07:33:59;13.30;;;2.78;;
62362;SDS011;48396;48.426;1.500;2023-03-14T07:36:24;13.13;;;2.95;;
62362;SDS011;48396;48.426;1.500;2023-03-14T07:38:50;9.95;;;2.90;;
62362;SDS011;48396;48.426;1.500;2023-03-14T07:41:17;11.18;;;2.28;;
62362;SDS011;48396;48.426;1.500;2023-03-14T07:43:43;10.13;;;2.65;;
62362;SDS011;48396;48.426;1.500;2023-03-14T07:46:10;11.85;;;2.60;;
62362;SDS011;48396;48.426;1.500;2023-03-14T07:48:46;8.98;;;2.55;;
62362;SDS011;48396;48.426;1.500;2023-03-14T07:51:16;14.30;;;2.78;;
62362;SDS011;48396;48.426;1.500;2023-03-14T07:53:42;13.30;;;2.95;;
62362;SDS011;48396;48.426;1.500;2023-03-14T07:56:10;15.77;;;2.88;;
62362;SDS011;48396;48.426;1.500;2023-03-14T07:58:41;14.77;;;3.35;;
62362;SDS011;48396;48.426;1.500;2023-03-14T08:01:10;14.10;;;3.00;;
62362;SDS011;48396;48.426;1.500;2023-03-14T08:03:35;13.95;;;3.10;;
62362;SDS011;48396;48.426;1.500;2023-03-14T08:06:02;17.05;;;3.05;;
62362;SDS011;48396;48.426;1.500;2023-03-14T08:08:28;13.82;;;3.28;;
62362;SDS011;48396;48.426;1.500;2023-03-14T08:10:54;15.20;;;3.42;;
62362;SDS011;48396;48.426;1.500;2023-03-14T08:13:20;13.38;;;2.97;;
62362;SDS011;48396;48.426;1.500;2023-03-14T08:15:48;11.80;;;2.33;;
62362;SDS011;48396;48.426;1.500;2023-03-14T08:18:14;9.73;;;2.42;;
62362;SDS011;48396;48.426;1.500;2023-03-14T08:20:40;8.85;;;2.05;;
62362;SDS011;48396;48.426;1.500;2023-03-14T08:23:06;8.88;;;1.77;;
62362;SDS011;48396;48.426;1.500;2023-03-14T08:25:31;10.43;;;2.03;;
62362;SDS011;48396;48.426;1.500;2023-03-14T08:27:58;10.30;;;2.75;;
62362;SDS011;48396;48.426;1.500;2023-03-14T08:30:23;12.60;;;3.33;;
62362;SDS011;48396;48.426;1.500;2023-03-14T08:32:49;16.90;;;4.60;;
62362;SDS011;48396;48.426;1.500;2023-03-14T08:35:15;11.65;;;2.95;;
62362;SDS011;48396;48.426;1.500;2023-03-14T08:37:41;10.80;;;2.80;;
62362;SDS011;48396;48.426;1.500;2023-03-14T08:40:07;10.20;;;2.63;;
62362;SDS011;48396;48.426;1.500;2023-03-14T08:42:38;11.32;;;2.40;;
62362;SDS011;48396;48.426;1.500;2023-03-14T08:45:05;9.10;;;2.45;;
62362;SDS011;48396;48.426;1.500;2023-03-14T08:47:32;11.20;;;3.72;;
62362;SDS011;48396;48.426;1.500;2023-03-14T08:49:58;10.02;;;2.72;;
62362;SDS011;48396;48.426;1.500;2023-03-14T08:52:24;6.63;;;2.03;;
62362;SDS011;48396;48.426;1.500;2023-03-14T08:54:50;12.70;;;2.30;;
62362;SDS011;48396;48.426;1.500;2023-03-14T08:57:16;8.38;;;2.40;;
62362;SDS011;48396;48.426;1.500;2023-03-14T08:59:42;3.97;;;1.83;;
62362;SDS011;48396;48.426;1.500;2023-03-14T09:02:11;14.18;;;2.40;;
62362;SDS011;48396;48.426;1.500;2023-03-14T09:04:37;8.45;;;3.03;;
62362;SDS011;48396;48.426;1.500;2023-03-14T09:07:03;5.93;;;2.00;;
62362;SDS011;48396;48.426;1.500;2023-03-14T09:09:29;7.30;;;2.03;;
62362;SDS011;48396;48.426;1.500;2023-03-14T09:11:56;9.25;;;2.65;;
62362;SDS011;48396;48.426;1.500;2023-03-14T09:14:22;6.80;;;1.90;;
62362;SDS011;48396;48.426;1.500;2023-03-14T09:16:47;8.15;;;2.58;;
62362;SDS011;48396;48.426;1.500;2023-03-14T09:19:13;8.88;;;1.80;;
62362;SDS011;48396;48.426;1.500;2023-03-14T09:21:39;10.70;;;2.80;;
62362;SDS011;48396;48.426;1.500;2023-03-14T09:24:05;11.80;;;2.10;;
62362;SDS011;48396;48.426;1.500;2023-03-14T09:26:31;8.27;;;1.75;;
62362;SDS011;48396;48.426;1.500;2023-03-14T09:28:57;4.32;;;1.60;;
62362;SDS011;48396;48.426;1.500;2023-03-14T09:31:22;7.50;;;1.80;;
62362;SDS011;48396;48.426;1.500;2023-03-14T09:33:48;6.47;;;1.52;;
62362;SDS011;48396;48.426;1.500;2023-03-14T09:36:14;3.10;;;1.50;;
62362;SDS011;48396;48.426;1.500;2023-03-14T09:38:40;9.13;;;1.90;;
62362;SDS011;48396;48.426;1.500;2023-03-14T09:43:49;10.27;;;2.08;;
62362;SDS011;48396;48.426;1.500;2023-03-14T09:46:24;5.38;;;1.65;;
62362;SDS011;48396;48.426;1.500;2023-03-14T09:48:49;9.38;;;2.13;;
62362;SDS011;48396;48.426;1.500;2023-03-14T09:51:18;11.10;;;2.15;;
62362;SDS011;48396;48.426;1.500;2023-03-14T09:53:48;13.90;;;2.55;;
62362;SDS011;48396;48.426;1.500;2023-03-14T09:56:23;7.75;;;2.15;;
62362;SDS011;48396;48.426;1.500;2023-03-14T09:58:55;12.18;;;2.08;;
62362;SDS011;48396;48.426;1.500;2023-03-14T10:01:27;8.32;;;2.28;;
62362;SDS011;48396;48.426;1.500;2023-03-14T10:03:56;10.77;;;2.22;;
62362;SDS011;48396;48.426;1.500;2023-03-14T10:06:27;9.52;;;2.70;;
62362;SDS011;48396;48.426;1.500;2023-03-14T10:08:54;8.38;;;2.22;;
62362;SDS011;48396;48.426;1.500;2023-03-14T10:11:24;13.27;;;2.58;;
62362;SDS011;48396;48.426;1.500;2023-03-14T10:14:11;7.05;;;1.67;;
62362;SDS011;48396;48.426;1.500;2023-03-14T10:16:45;10.88;;;3.30;;
62362;SDS011;48396;48.426;1.500;2023-03-14T10:19:13;10.50;;;3.13;;
62362;SDS011;48396;48.426;1.500;2023-03-14T10:21:41;15.13;;;2.95;;
62362;SDS011;48396;48.426;1.500;2023-03-14T10:24:20;9.10;;;1.95;;
62362;SDS011;48396;48.426;1.500;2023-03-14T10:29:50;9.13;;;2.30;;
62362;SDS011;48396;48.426;1.500;2023-03-14T10:32:39;9.45;;;1.80;;
62362;SDS011;48396;48.426;1.500;2023-03-14T10:35:21;10.85;;;2.25;;
62362;SDS011;48396;48.426;1.500;2023-03-14T10:38:10;8.15;;;2.00;;
62362;SDS011;48396;48.426;1.500;2023-03-14T10:40:40;15.75;;;2.58;;
62362;SDS011;48396;48.426;1.500;2023-03-14T10:43:13;8.73;;;1.88;;
62362;SDS011;48396;48.426;1.500;2023-03-14T10:45:56;6.32;;;1.75;;
62362;SDS011;48396;48.426;1.500;2023-03-14T10:51:06;11.02;;;2.15;;
62362;SDS011;48396;48.426;1.500;2023-03-14T10:56:06;10.70;;;1.50;;
62362;SDS011;48396;48.426;1.500;2023-03-14T10:58:35;12.18;;;2.22;;
62362;SDS011;48396;48.426;1.500;2023-03-14T11:03:52;10.70;;;2.83;;
62362;SDS011;48396;48.426;1.500;2023-03-14T11:20:46;10.05;;;2.13;;
62362;SDS011;48396;48.426;1.500;2023-03-14T11:26:29;11.55;;;2.45;;
62362;SDS011;48396;48.426;1.500;2023-03-14T11:32:14;14.73;;;2.20;;
62362;SDS011;48396;48.426;1.500;2023-03-14T11:35:00;10.57;;;2.22;;
62362;SDS011;48396;48.426;1.500;2023-03-14T11:37:37;12.98;;;2.67;;
62362;SDS011;48396;48.426;1.500;2023-03-14T11:42:44;10.40;;;2.05;;
62362;SDS011;48396;48.426;1.500;2023-03-14T11:45:16;13.68;;;2.53;;
62362;SDS011;48396;48.426;1.500;2023-03-14T11:51:07;11.00;;;2.28;;
62362;SDS011;48396;48.426;1.500;2023-03-14T11:53:43;8.75;;;1.92;;
62362;SDS011;48396;48.426;1.500;2023-03-14T11:59:09;11.43;;;2.40;;
62362;SDS011;48396;48.426;1.500;2023-03-14T12:01:52;9.32;;;2.30;;
62362;SDS011;48396;48.426;1.500;2023-03-14T12:04:24;10.10;;;1.98;;
62362;SDS011;48396;48.426;1.500;2023-03-14T12:06:56;12.95;;;1.88;;
62362;SDS011;48396;48.426;1.500;2023-03-14T12:09:27;11.77;;;2.22;;
62362;SDS011;48396;48.426;1.500;2023-03-14T12:11:58;11.38;;;2.00;;
62362;SDS011;48396;48.426;1.500;2023-03-14T12:14:34;8.93;;;1.85;;
62362;SDS011;48396;48.426;1.500;2023-03-14T12:17:06;12.48;;;2.20;;
62362;SDS011;48396;48.426;1.500;2023-03-14T12:20:06;12.85;;;2.45;;
62362;SDS011;48396;48.426;1.500;2023-03-14T12:25:19;9.57;;;2.28;;
62362;SDS011;48396;48.426;1.500;2023-03-14T12:35:47;11.20;;;3.00;;
62362;SDS011;48396;48.426;1.500;2023-03-14T12:38:23;10.98;;;2.80;;
62362;SDS011;48396;48.426;1.500;2023-03-14T12:43:45;8.60;;;2.40;;
62362;SDS011;48396;48.426;1.500;2023-03-14T12:48:44;10.90;;;2.00;;
62362;SDS011;48396;48.426;1.500;2023-03-14T12:51:16;6.43;;;1.77;;
62362;SDS011;48396;48.426;1.500;2023-03-14T13:02:37;16.75;;;5.10;;
62362;SDS011;48396;48.426;1.500;2023-03-14T13:04:51;12.40;;;4.53;;
62362;SDS011;48396;48.426;1.500;2023-03-14T13:08:03;18.92;;;6.18;;
62362;SDS011;48396;48.426;1.500;2023-03-14T13:12:54;19.95;;;5.25;;
62362;SDS011;48396;48.426;1.500;2023-03-14T13:15:35;11.93;;;3.90;;
62362;SDS011;48396;48.426;1.500;2023-03-14T13:18:10;11.40;;;4.05;;
62362;SDS011;48396;48.426;1.500;2023-03-14T13:20:39;9.63;;;2.75;;
62362;SDS011;48396;48.426;1.500;2023-03-14T13:23:20;6.85;;;2.15;;
62362;SDS011;48396;48.426;1.500;2023-03-14T13:25:47;7.57;;;2.28;;
62362;SDS011;48396;48.426;1.500;2023-03-14T13:28:14;7.07;;;1.83;;
62362;SDS011;48396;48.426;1.500;2023-03-14T13:30:41;9.40;;;2.00;;
62362;SDS011;48396;48.426;1.500;2023-03-14T13:33:20;10.27;;;2.40;;
62362;SDS011;48396;48.426;1.500;2023-03-14T13:35:57;13.70;;;3.35;;
62362;SDS011;48396;48.426;1.500;2023-03-14T13:38:25;7.95;;;2.00;;
62362;SDS011;48396;48.426;1.500;2023-03-14T13:40:56;8.82;;;2.15;;
62362;SDS011;48396;48.426;1.500;2023-03-14T13:43:31;5.88;;;1.83;;
62362;SDS011;48396;48.426;1.500;2023-03-14T13:46:31;5.32;;;1.60;;
62362;SDS011;48396;48.426;1.500;2023-03-14T13:51:24;5.97;;;2.08;;
62362;SDS011;48396;48.426;1.500;2023-03-14T13:53:53;11.15;;;3.05;;
62362;SDS011;48396;48.426;1.500;2023-03-14T13:56:23;7.68;;;2.72;;
62362;SDS011;48396;48.426;1.500;2023-03-14T13:58:52;7.88;;;2.10;;
62362;SDS011;48396;48.426;1.500;2023-03-14T14:01:33;10.77;;;2.80;;
62362;SDS011;48396;48.426;1.500;2023-03-14T14:04:06;13.52;;;2.70;;
62362;SDS011;48396;48.426;1.500;2023-03-14T14:06:35;8.82;;;2.85;;
62362;SDS011;48396;48.426;1.500;2023-03-14T14:09:10;9.38;;;2.22;;
62362;SDS011;48396;48.426;1.500;2023-03-14T14:14:15;13.45;;;2.95;;
62362;SDS011;48396;48.426;1.500;2023-03-14T14:16:53;9.10;;;2.10;;
62362;SDS011;48396;48.426;1.500;2023-03-14T14:19:20;5.78;;;1.60;;
62362;SDS011;48396;48.426;1.500;2023-03-14T14:21:48;8.32;;;1.42;;
62362;SDS011;48396;48.426;1.500;2023-03-14T14:24:14;7.63;;;1.98;;
62362;SDS011;48396;48.426;1.500;2023-03-14T14:26:46;6.28;;;1.70;;
62362;SDS011;48396;48.426;1.500;2023-03-14T14:29:38;7.18;;;1.55;;
62362;SDS011;48396;48.426;1.500;2023-03-14T14:32:10;4.78;;;1.85;;
62362;SDS011;48396;48.426;1.500;2023-03-14T14:34:45;6.75;;;2.90;;
62362;SDS011;48396;48.426;1.500;2023-03-14T14:37:28;5.65;;;2.00;;
62362;SDS011;48396;48.426;1.500;2023-03-14T14:39:59;6.70;;;1.88;;
62362;SDS011;48396;48.426;1.500;2023-03-14T14:42:35;5.78;;;1.90;;
62362;SDS011;48396;48.426;1.500;2023-03-14T14:45:05;5.40;;;2.13;;
62362;SDS011;48396;48.426;1.500;2023-03-14T14:47:47;10.48;;;2.20;;
62362;SDS011;48396;48.426;1.500;2023-03-14T14:53:35;8.50;;;2.08;;
62362;SDS011;48396;48.426;1.500;2023-03-14T14:56:16;4.68;;;1.50;;
62362;SDS011;48396;48.426;1.500;2023-03-14T14:58:47;8.32;;;1.67;;
62362;SDS011;48396;48.426;1.500;2023-03-14T15:01:15;7.00;;;2.00;;
62362;SDS011;48396;48.426;1.500;2023-03-14T15:03:44;11.55;;;2.78;;
62362;SDS011;48396;48.426;1.500;2023-03-14T15:06:12;10.88;;;2.80;;
62362;SDS011;48396;48.426;1.500;2023-03-14T15:08:39;10.52;;;3.60;;
62362;SDS011;48396;48.426;1.500;2023-03-14T15:11:05;11.90;;;3.10;;
62362;SDS011;48396;48.426;1.500;2023-03-14T15:13:31;15.43;;;3.80;;
62362;SDS011;48396;48.426;1.500;2023-03-14T15:15:57;14.00;;;3.60;;
62362;SDS011;48396;48.426;1.500;2023-03-14T15:18:24;11.43;;;3.17;;
62362;SDS011;48396;48.426;1.500;2023-03-14T15:20:53;10.85;;;3.20;;
62362;SDS011;48396;48.426;1.500;2023-03-14T15:23:20;5.18;;;1.33;;
62362;SDS011;48396;48.426;1.500;2023-03-14T15:25:46;3.83;;;1.08;;
62362;SDS011;48396;48.426;1.500;2023-03-14T15:28:16;5.30;;;1.35;;
62362;SDS011;48396;48.426;1.500;2023-03-14T15:30:45;4.28;;;1.33;;
62362;SDS011;48396;48.426;1.500;2023-03-14T15:33:12;3.78;;;1.10;;
62362;SDS011;48396;48.426;1.500;2023-03-14T15:35:38;2.80;;;1.08;;
62362;SDS011;48396;48.426;1.500;2023-03-14T15:38:11;4.70;;;1.38;;
62362;SDS011;48396;48.426;1.500;2023-03-14T15:40:38;5.25;;;1.60;;
62362;SDS011;48396;48.426;1.500;2023-03-14T15:43:04;6.20;;;1.73;;
62362;SDS011;48396;48.426;1.500;2023-03-14T15:45:30;5.20;;;1.83;;
62362;SDS011;48396;48.426;1.500;2023-03-14T15:47:56;6.15;;;1.77;;
62362;SDS011;48396;48.426;1.500;2023-03-14T15:50:22;5.28;;;1.50;;
62362;SDS011;48396;48.426;1.500;2023-03-14T15:52:48;3.55;;;1.48;;
62362;SDS011;48396;48.426;1.500;2023-03-14T15:55:14;8.10;;;1.63;;
62362;SDS011;48396;48.426;1.500;2023-03-14T15:57:42;3.90;;;1.15;;
62362;SDS011;48396;48.426;1.500;2023-03-14T16:00:11;6.65;;;1.48;;
62362;SDS011;48396;48.426;1.500;2023-03-14T16:02:39;4.85;;;1.10;;
62362;SDS011;48396;48.426;1.500;2023-03-14T16:05:07;3.40;;;1.48;;
62362;SDS011;48396;48.426;1.500;2023-03-14T16:07:34;4.97;;;1.58;;
62362;SDS011;48396;48.426;1.500;2023-03-14T16:10:00;6.85;;;1.60;;
62362;SDS011;48396;48.426;1.500;2023-03-14T16:12:26;8.27;;;1.77;;
62362;SDS011;48396;48.426;1.500;2023-03-14T16:14:52;6.70;;;1.30;;
62362;SDS011;48396;48.426;1.500;2023-03-14T16:17:18;4.75;;;1.70;;
62362;SDS011;48396;48.426;1.500;2023-03-14T16:19:44;7.57;;;1.70;;